Aviation Digital Data Service (ADDS)

Output produced by METARs form (0924 UTC 19 April 2015)
found at http://aviationweather.gov/adds/metars/
 
KPHL 190900Z 1909/2012 04008KT P6SM SCT250 
     FM191100 07010KT P6SM SCT250 
     FM192200 08012KT P6SM SCT025 BKN120 
     FM200200 08014KT P6SM OVC015 
     FM200600 08016G24KT 4SM -RA BR OVC008 WS020/14045KT